Manville, Wyoming
Current Conditions -  °F | °C
As of 1:35 AM on Saturday 29 Nov 2014 (Local Time) from KGUR Reporting Station
Clear Clear  
Wind Chill: 56°   Ceiling: Unl
Heat Index: 56°   Visibility: 10mi
Dew Point: 19°   Wind: 9mph
Humidity: 24%   Direction: 260°W
Pressure: 29.64"   Gusts: 16mph
Location:  42.78°N, 104.62°W
Report Text: KGUR 290835Z AUTO 26008G14KT 10SM CLR 14/M07 A2964 RMK AO2 T01351071
Loading
Personal Weather Stations






























Interactive Weather Map New forecast layout! Learn more

10-Day Weather Forecast

Advertisements
Track Severe Weather on mobile